Time;durP1;ratioP1;P1;durP2;ratioP2;P2;SDS_P1;SDS_P2;PMS_P1;PMS_P2;Temp;Humidity;BMP_temperature;BMP_pressure;BME280_temperature;BME280_humidity;BME280_pressure;Samples;Min_cycle;Max_cycle;Signal;HPM_P1;HPM_P2
2022/04/21 00:01:49;;;;;;;1.55;0.90;;;;;;;18.23;50.70;98657.16;4982834;28;20034;-92
2022/04/21 00:04:17;;;;;;;1.40;0.80;;;;;;;18.23;51.11;98656.31;4966236;28;20047;-91
2022/04/21 00:06:54;;;;;;;1.73;0.88;;;;;;;18.25;50.84;98657.91;4949831;29;20047;-91
2022/04/21 00:09:33;;;;;;;2.03;1.05;;;;;;;18.24;50.74;98656.22;4982566;28;20015;-92
2022/04/21 00:12:26;;;;;;;1.15;0.70;;;;;;;18.24;50.83;98650.94;4982653;28;20111;-94
2022/04/21 00:24:48;;;;;;;1.15;0.73;;;;;;;18.23;50.92;98657.16;4981948;28;20046;-92
2022/04/21 00:27:15;;;;;;;1.48;0.90;;;;;;;18.22;50.92;98650.16;4965274;29;20027;-94
2022/04/21 00:30:08;;;;;;;2.08;0.90;;;;;;;18.21;50.84;98651.13;4949360;29;20036;-93
2022/04/21 00:32:44;;;;;;;1.60;0.75;;;;;;;18.21;50.66;98651.13;4980711;29;20035;-93
2022/04/21 00:35:19;;;;;;;1.60;0.80;;;;;;;18.22;50.89;98652.81;4979891;29;20055;-93
2022/04/21 00:37:59;;;;;;;1.67;0.75;;;;;;;18.19;50.86;98642.47;4964257;28;20040;-92
2022/04/21 00:40:32;;;;;;;1.90;0.90;;;;;;;18.19;50.88;98647.72;4979386;29;20015;-92
2022/04/21 00:46:24;;;;;;;1.30;0.70;;;;;;;18.18;50.99;98630.19;4980627;29;20120;-94
2022/04/21 00:55:38;;;;;;;1.08;0.70;;;;;;;18.15;50.72;98619.81;4999663;28;20046;-91
2022/04/21 01:04:58;;;;;;;1.45;0.80;;;;;;;18.15;50.77;98613.72;4999267;28;20045;-92
2022/04/21 01:07:31;;;;;;;0.90;0.50;;;;;;;18.14;50.81;98618.13;4999035;28;20058;-91
2022/04/21 01:10:20;;;;;;;1.73;0.80;;;;;;;18.15;50.98;98614.53;4969110;28;20057;-92
2022/04/21 01:13:20;;;;;;;1.35;0.60;;;;;;;18.14;50.71;98610.19;4982850;28;20043;-92
2022/04/21 01:19:13;;;;;;;1.98;0.82;;;;;;;18.15;50.84;98614.53;4999719;28;20130;-92
2022/04/21 01:21:46;;;;;;;1.10;0.60;;;;;;;18.16;50.72;98615.41;4955408;28;20546;-93
2022/04/21 01:24:18;;;;;;;0.80;0.50;;;;;;;18.16;50.92;98616.22;5000115;28;20026;-92
2022/04/21 01:26:47;;;;;;;1.30;0.52;;;;;;;18.15;50.55;98603.16;5000008;28;20031;-94
2022/04/21 01:29:28;;;;;;;1.35;0.70;;;;;;;18.15;50.76;98609.25;4970401;28;20163;-94
2022/04/21 01:35:25;;;;;;;1.17;0.60;;;;;;;18.13;50.92;98595.31;5000334;28;20050;-93
2022/04/21 01:41:11;;;;;;;0.95;0.55;;;;;;;18.12;51.06;98596.25;5000278;28;20077;-93
2022/04/21 01:43:44;;;;;;;1.58;0.75;;;;;;;18.13;50.67;98584.75;5000043;28;20058;-91
2022/04/21 01:46:30;;;;;;;1.45;0.45;;;;;;;18.12;50.90;98588.34;4964564;28;20031;-93
2022/04/21 01:59:32;;;;;;;1.27;0.60;;;;;;;18.05;50.98;98550.00;4940810;29;20075;-93
2022/04/21 02:02:21;;;;;;;1.35;0.55;;;;;;;18.04;50.94;98551.81;4938715;29;20023;-92
2022/04/21 02:05:04;;;;;;;0.73;0.55;;;;;;;18.04;50.82;98550.97;4924082;29;20036;-94
2022/04/21 02:07:31;;;;;;;1.10;0.60;;;;;;;18.04;51.03;98548.31;4920913;29;20112;-93
2022/04/21 02:10:18;;;;;;;1.25;0.50;;;;;;;18.06;51.09;98549.13;4908792;29;20102;-93
2022/04/21 02:12:52;;;;;;;1.05;0.50;;;;;;;18.06;50.74;98536.75;4939890;29;20028;-92
2022/04/21 02:15:43;;;;;;;1.10;0.50;;;;;;;18.04;51.03;98537.75;4909702;29;20375;-92
2022/04/21 02:18:37;;;;;;;1.05;0.68;;;;;;;18.03;50.81;98547.50;4924971;29;20060;-93
2022/04/21 02:21:34;;;;;;;1.38;0.60;;;;;;;18.05;50.98;98547.38;4939150;29;20055;-94
2022/04/21 02:24:07;;;;;;;1.40;0.60;;;;;;;18.04;51.02;98543.03;4924522;29;20047;-92
2022/04/21 02:26:40;;;;;;;1.40;0.60;;;;;;;18.01;51.18;98544.09;4893728;29;20035;-92
2022/04/21 02:29:08;;;;;;;0.77;0.30;;;;;;;18.00;50.82;98542.41;4924392;29;20028;-93
2022/04/21 02:31:43;;;;;;;1.25;0.50;;;;;;;18.03;50.71;98547.50;4939667;29;20111;-93
2022/04/21 02:34:12;;;;;;;0.95;0.40;;;;;;;18.03;50.89;98550.13;4924868;29;20031;-93
2022/04/21 02:36:39;;;;;;;0.82;0.43;;;;;;;18.03;50.74;98536.94;4958261;28;20074;-93
2022/04/21 02:39:27;;;;;;;0.95;0.60;;;;;;;18.00;50.70;98537.13;4996728;28;20023;-94
2022/04/21 02:42:17;;;;;;;0.60;0.40;;;;;;;18.01;51.00;98533.53;4989208;28;20049;-93
2022/04/21 02:47:40;;;;;;;0.75;0.50;;;;;;;18.01;50.94;98522.97;4998321;28;20044;-94
2022/04/21 02:50:17;;;;;;;0.80;0.40;;;;;;;18.01;50.90;98530.06;4998722;28;20015;-91
2022/04/21 02:52:49;;;;;;;1.52;0.43;;;;;;;18.00;50.91;98525.72;4990033;28;20023;-91
2022/04/21 02:58:23;;;;;;;0.70;0.55;;;;;;;17.96;50.74;98525.03;4998395;28;20127;-93
2022/04/21 03:01:12;;;;;;;1.30;0.50;;;;;;;17.94;51.07;98527.81;4998594;28;20041;-93
2022/04/21 03:07:35;;;;;;;1.02;0.75;;;;;;;17.94;51.15;98527.81;4998794;28;20038;-92
2022/04/21 03:24:18;;;;;;;0.88;0.40;;;;;;;17.94;50.70;98522.53;4958823;29;20131;-91
2022/04/21 03:25:57;;;;;;;0.93;0.60;;;;;;;17.93;50.67;98523.44;4959647;29;20133;-93
2022/04/21 03:31:25;;;;;;;1.08;0.52;;;;;;;17.92;50.89;98521.75;4945419;29;20047;-93
2022/04/21 03:34:17;;;;;;;1.17;0.40;;;;;;;17.93;50.64;98514.69;4958182;29;20137;-93
2022/04/21 03:37:08;;;;;;;1.77;0.63;;;;;;;17.93;50.60;98512.88;4930047;29;20054;-92
2022/04/21 03:39:37;;;;;;;0.98;0.40;;;;;;;17.93;50.73;98501.50;4926578;29;20050;-93
2022/04/21 03:42:09;;;;;;;1.00;0.30;;;;;;;17.93;50.85;98507.59;4942338;29;20039;-94
2022/04/21 03:44:43;;;;;;;0.70;0.40;;;;;;;17.93;50.82;98510.25;4986905;28;20019;-94
2022/04/21 03:47:11;;;;;;;0.40;0.40;;;;;;;17.93;50.67;98504.97;4966648;28;20018;-91
2022/04/21 04:00:22;;;;;;;1.05;0.50;;;;;;;17.91;50.74;98498.13;4952252;28;20074;-95
2022/04/21 04:03:01;;;;;;;0.93;0.50;;;;;;;17.91;50.97;98492.84;4995480;28;20031;-94
2022/04/21 04:05:37;;;;;;;0.80;0.40;;;;;;;17.91;50.71;98490.22;5017689;28;20030;-94
2022/04/21 04:18:35;;;;;;;0.55;0.30;;;;;;;17.87;50.83;98489.53;5018986;28;20042;-95
2022/04/21 04:21:13;;;;;;;1.42;0.45;;;;;;;17.87;50.87;98493.97;5015030;28;20038;-95
2022/04/21 04:24:07;;;;;;;1.13;0.40;;;;;;;17.85;50.88;98486.16;5018027;28;20031;-93
2022/04/21 04:27:00;;;;;;;0.20;0.20;;;;;;;17.84;50.87;98487.09;4985343;28;20021;-94
2022/04/21 04:29:45;;;;;;;0.52;0.30;;;;;;;17.87;50.80;98481.59;5014727;28;20018;-94
2022/04/21 04:32:24;;;;;;;0.93;0.40;;;;;;;17.83;50.83;98482.78;4999753;28;20034;-94
2022/04/21 04:35:00;;;;;;;0.93;0.30;;;;;;;17.82;50.93;98481.09;5003370;28;20026;-94
2022/04/21 04:37:45;;;;;;;1.00;0.40;;;;;;;17.83;50.89;98488.88;5020033;28;20042;-94
2022/04/21 04:40:32;;;;;;;0.60;0.50;;;;;;;17.83;50.88;98486.25;5002900;28;20031;-94
2022/04/21 04:53:07;;;;;;;0.80;0.40;;;;;;;17.81;50.90;98500.47;4958739;29;20042;-94
2022/04/21 04:55:49;;;;;;;0.20;0.20;;;;;;;17.80;51.04;98496.16;4960226;29;20108;-94
2022/04/21 04:58:23;;;;;;;0.75;0.35;;;;;;;17.80;50.71;98502.28;4956814;29;20032;-93
2022/04/21 05:00:58;;;;;;;0.98;0.50;;;;;;;17.84;50.88;98495.00;4960164;29;20020;-92
2022/04/21 05:04:14;;;;;;;0.93;0.35;;;;;;;17.84;50.80;98500.28;4960996;29;20486;-94
2022/04/21 05:06:43;;;;;;;0.47;0.30;;;;;;;17.82;50.70;98499.56;4958939;29;20047;-93
2022/04/21 05:09:22;;;;;;;0.95;0.50;;;;;;;17.82;50.83;98496.91;4940243;29;20044;-94
2022/04/21 05:12:15;;;;;;;0.82;0.30;;;;;;;17.82;50.82;98491.63;4944751;29;20035;-93
2022/04/21 05:14:51;;;;;;;0.77;0.30;;;;;;;17.80;50.85;98493.50;4957361;29;20054;-94
2022/04/21 05:17:42;;;;;;;0.30;0.22;;;;;;;17.80;50.96;98494.38;4947223;29;20079;-92
2022/04/21 05:20:19;;;;;;;1.85;0.30;;;;;;;17.78;50.71;98506.78;4944411;29;20095;-92
2022/04/21 05:22:50;;;;;;;0.28;0.20;;;;;;;17.80;50.79;98491.72;4944633;29;20051;-93
2022/04/21 05:25:26;;;;;;;0.90;0.38;;;;;;;17.77;50.67;98499.81;4944587;29;20060;-92
2022/04/21 05:28:11;;;;;;;0.93;0.40;;;;;;;17.78;51.05;98495.41;4945597;29;20078;-93
2022/04/21 05:30:55;;;;;;;0.90;0.38;;;;;;;17.77;50.93;98499.81;4997974;28;20039;-92
2022/04/21 05:33:45;;;;;;;0.63;0.32;;;;;;;17.78;51.02;98493.59;4995241;28;20147;-91
2022/04/21 05:36:34;;;;;;;0.63;0.30;;;;;;;17.78;50.91;98490.97;4991440;28;20026;-93
2022/04/21 05:39:09;;;;;;;0.88;0.40;;;;;;;17.78;50.81;98492.75;4999289;28;20041;-92
2022/04/21 05:41:38;;;;;;;0.50;0.30;;;;;;;17.78;50.92;98490.13;4971869;28;20062;-92
2022/04/21 05:44:29;;;;;;;0.57;0.30;;;;;;;17.79;50.73;98499.72;4999629;28;20027;-93
2022/04/21 05:47:12;;;;;;;1.27;0.35;;;;;;;17.76;50.89;98492.84;4981799;28;20057;-91
2022/04/21 05:49:42;;;;;;;0.63;0.30;;;;;;;17.77;50.78;98499.81;4995886;28;20038;-93
2022/04/21 05:55:59;;;;;;;0.73;0.30;;;;;;;17.77;50.83;98494.53;4999584;28;20089;-95
2022/04/21 06:09:21;;;;;;;0.55;0.30;;;;;;;17.74;51.04;98493.91;5013590;28;20064;-93
2022/04/21 06:15:55;;;;;;;0.52;0.30;;;;;;;17.74;50.88;98488.63;4921115;29;20026;-93
2022/04/21 06:18:26;;;;;;;0.77;0.40;;;;;;;17.73;50.96;98486.94;4905899;29;20060;-94
2022/04/21 06:20:54;;;;;;;0.75;0.30;;;;;;;17.71;50.89;98482.59;4891734;29;20028;-94
2022/04/21 06:23:47;;;;;;;1.38;0.57;;;;;;;17.70;50.90;98487.97;4918876;29;20072;-92
2022/04/21 06:33:01;;;;;;;0.47;0.40;;;;;;;17.70;50.99;98491.47;4921039;29;20069;-94
2022/04/21 06:35:27;;;;;;;0.43;0.20;;;;;;;17.69;50.99;98499.47;4920235;29;20044;-92
2022/04/21 06:38:28;;;;;;;0.52;0.30;;;;;;;17.69;50.89;98497.66;4908264;29;20028;-92
2022/04/21 06:40:57;;;;;;;1.00;0.40;;;;;;;17.70;50.78;98494.09;4922259;29;20031;-95
2022/04/21 06:50:11;;;;;;;0.45;0.30;;;;;;;17.69;50.79;98487.09;5019728;28;20053;-94
2022/04/21 06:52:56;;;;;;;0.40;0.25;;;;;;;17.70;50.66;98488.81;5019752;28;20030;-94
2022/04/21 06:55:23;;;;;;;0.75;0.30;;;;;;;17.69;50.81;98486.28;5019668;28;20011;-94
2022/04/21 06:57:53;;;;;;;0.60;0.35;;;;;;;17.67;50.78;98483.72;5000140;28;20110;-93
2022/04/21 07:03:42;;;;;;;1.15;0.38;;;;;;;17.70;50.89;98478.28;4976830;29;20066;-92
2022/04/21 07:06:22;;;;;;;0.82;0.50;;;;;;;17.70;50.87;98478.28;4961129;29;20027;-93
2022/04/21 07:09:05;;;;;;;0.38;0.20;;;;;;;17.66;51.03;98471.47;4971343;29;20090;-91
2022/04/21 07:11:43;;;;;;;0.75;0.30;;;;;;;17.68;50.93;98474.88;4976147;29;20043;-92
2022/04/21 07:14:36;;;;;;;0.70;0.40;;;;;;;17.67;50.81;98467.91;4956453;29;20050;-92
2022/04/21 07:23:53;;;;;;;0.32;0.20;;;;;;;17.69;50.83;98466.00;4977689;29;20022;-93
2022/04/21 07:26:40;;;;;;;0.52;0.35;;;;;;;17.69;50.79;98471.28;4974478;29;20058;-91
2022/04/21 07:29:26;;;;;;;0.80;0.40;;;;;;;17.69;50.79;98466.00;4976986;29;20031;-92
2022/04/21 07:32:13;;;;;;;0.75;0.30;;;;;;;17.65;50.96;98459.25;4979319;28;20034;-94
2022/04/21 07:38:44;;;;;;;0.22;0.20;;;;;;;17.63;50.97;98455.84;4997403;28;20045;-94
2022/04/21 07:41:13;;;;;;;0.75;0.43;;;;;;;17.64;50.86;98456.69;4982642;28;20104;-94
2022/04/21 07:43:45;;;;;;;0.90;0.50;;;;;;;17.65;50.86;98459.25;4996169;28;20038;-92
2022/04/21 07:46:29;;;;;;;0.35;0.30;;;;;;;17.66;50.96;98463.56;4990447;28;20035;-92
2022/04/21 07:55:45;;;;;;;0.77;0.40;;;;;;;17.66;50.73;98457.44;4997387;28;20033;-94
2022/04/21 07:59:05;;;;;;;1.35;0.40;;;;;;;17.66;50.78;98453.00;4996537;28;20065;-94
2022/04/21 08:01:45;;;;;;;0.40;0.30;;;;;;;17.65;50.86;98451.31;4973724;28;20064;-94
2022/04/21 08:04:24;;;;;;;0.40;0.28;;;;;;;17.66;50.93;98460.06;4981937;28;20031;-93
2022/04/21 08:07:15;;;;;;;0.47;0.25;;;;;;;17.66;50.75;98455.66;4996283;28;20022;-92
2022/04/21 08:09:50;;;;;;;0.30;0.20;;;;;;;17.66;50.88;98450.38;4993352;28;20065;-92
2022/04/21 08:22:45;;;;;;;0.90;0.30;;;;;;;17.66;50.93;98471.47;5001074;28;20070;-93
2022/04/21 08:33:46;;;;;;;0.63;0.30;;;;;;;17.63;51.04;98484.84;5000476;28;20511;-94
2022/04/21 08:36:13;;;;;;;0.40;0.30;;;;;;;17.63;50.89;98487.50;5000965;28;20094;-92
2022/04/21 08:39:10;;;;;;;1.40;0.40;;;;;;;17.63;51.05;98487.50;5001258;28;20038;-93
2022/04/21 08:41:49;;;;;;;1.00;0.63;;;;;;;17.63;50.89;98479.56;5001003;28;20031;-93
2022/04/21 08:44:22;;;;;;;0.50;0.40;;;;;;;17.62;51.25;98480.53;5000081;28;20023;-93
2022/04/21 08:53:45;;;;;;;1.40;0.50;;;;;;;17.62;50.70;98491.06;4961327;29;20095;-94
2022/04/21 08:56:36;;;;;;;0.45;0.28;;;;;;;17.62;51.21;98506.91;4943681;29;20042;-93
2022/04/21 08:59:08;;;;;;;0.50;0.30;;;;;;;17.63;50.85;98511.22;4953943;29;20043;-92
2022/04/21 09:02:19;;;;;;;0.38;0.28;;;;;;;17.63;50.77;98516.50;4947289;29;20071;-93
2022/04/21 09:05:10;;;;;;;0.57;0.40;;;;;;;17.62;51.06;98522.72;4960202;29;20046;-93
2022/04/21 09:18:56;;;;;;;1.48;0.30;;;;;;;17.61;51.06;98520.19;4959449;29;20070;-94
2022/04/21 09:21:34;;;;;;;0.93;0.40;;;;;;;17.60;51.05;98519.34;4958220;28;20046;-94
2022/04/21 09:24:30;;;;;;;0.98;0.43;;;;;;;17.61;50.90;98518.41;5000592;28;20019;-94
2022/04/21 09:33:46;;;;;;;0.73;0.40;;;;;;;17.60;51.18;98503.53;4940744;29;20047;-93
2022/04/21 09:40:04;;;;;;;0.60;0.40;;;;;;;17.60;51.14;98487.69;4939904;29;20064;-94
2022/04/21 09:42:50;;;;;;;0.40;0.30;;;;;;;17.59;51.17;98486.00;4938017;29;20028;-93
2022/04/21 09:46:10;;;;;;;0.82;0.40;;;;;;;17.63;50.82;98482.22;4928897;29;20043;-92
2022/04/21 09:48:48;;;;;;;1.52;0.40;;;;;;;17.61;51.23;98473.56;4943561;29;20087;-92
2022/04/21 10:02:19;;;;;;;0.63;0.35;;;;;;;17.61;51.32;98447.19;4939878;29;20120;-91
2022/04/21 10:05:01;;;;;;;;;;;;;;;17.62;51.17;98438.31;4940843;29;20028;-93
2022/04/21 10:07:34;;;;;;;0.95;0.55;;;;;;;17.63;51.09;98440.00;4925425;29;19906;-91
2022/04/21 10:10:28;;;;;;;1.27;0.40;;;;;;;17.63;51.16;98442.63;4941129;29;20072;-93
2022/04/21 10:19:54;;;;;;;0.68;0.32;;;;;;;17.65;51.36;98424.09;4874546;29;20073;-94
2022/04/21 10:39:37;;;;;;;0.70;0.32;;;;;;;17.67;50.96;98403.75;4810537;30;20018;-93
2022/04/21 10:42:51;;;;;;;1.13;0.30;;;;;;;17.67;51.21;98407.22;4792633;30;20045;-93
2022/04/21 10:45:36;;;;;;;0.90;0.30;;;;;;;17.68;50.96;98405.44;4806564;29;20039;-94
2022/04/21 10:48:34;;;;;;;0.50;0.30;;;;;;;17.69;51.27;98407.13;4863319;29;20021;-92
2022/04/21 10:57:12;;;;;;;0.40;0.38;;;;;;;17.68;51.16;98403.63;4900481;29;20084;-91
2022/04/21 10:58:54;;;;;;;1.02;0.40;;;;;;;17.70;51.21;98414.94;4901429;29;20056;-92
2022/04/21 11:02:18;;;;;;;0.70;0.30;;;;;;;17.68;51.42;98422.09;4899185;29;20130;-91
2022/04/21 11:14:58;;;;;;;0.77;0.32;;;;;;;17.65;51.17;98419.66;4809802;30;20054;-93
2022/04/21 11:18:11;;;;;;;0.50;0.30;;;;;;;17.64;51.04;98420.63;4811174;29;20122;-92
2022/04/21 11:24:29;;;;;;;0.90;0.38;;;;;;;17.65;51.32;98437.28;4921276;29;20041;-93
2022/04/21 11:27:45;;;;;;;0.65;0.38;;;;;;;17.64;51.05;98431.16;4903631;29;20116;-91
2022/04/21 11:33:44;;;;;;;0.82;0.50;;;;;;;17.64;51.03;98436.44;4979483;28;20030;-93
2022/04/21 11:43:21;;;;;;;0.93;0.50;;;;;;;17.62;51.03;98430.41;4979852;28;20051;-95
2022/04/21 11:46:11;;;;;;;1.25;0.40;;;;;;;17.63;51.16;98420.72;4968438;29;20023;-94
2022/04/21 11:49:10;;;;;;;0.50;0.40;;;;;;;17.62;51.21;98427.75;4982315;29;20035;-94
2022/04/21 11:52:02;;;;;;;0.50;0.30;;;;;;;17.62;51.21;98417.22;4980043;29;20062;-94
2022/04/21 11:54:49;;;;;;;0.50;0.30;;;;;;;17.63;51.04;98424.19;4940779;29;20047;-94
2022/04/21 12:10:57;;;;;;;0.90;0.40;;;;;;;17.63;51.27;98403.06;4981779;29;20077;-93
2022/04/21 12:13:27;;;;;;;0.88;0.40;;;;;;;17.63;51.22;98408.34;4960175;29;20039;-93
2022/04/21 12:30:27;;;;;;;0.40;0.30;;;;;;;17.64;50.90;98398.66;4922072;29;20071;-92
2022/04/21 12:33:52;;;;;;;0.82;0.50;;;;;;;17.63;51.27;98397.78;4920705;29;20044;-92
2022/04/21 12:56:55;;;;;;;0.60;0.45;;;;;;;17.67;51.22;98383.47;4961792;29;20071;-91
2022/04/21 12:59:31;;;;;;;0.60;0.30;;;;;;;17.67;51.16;98387.91;4929723;29;20036;-92
2022/04/21 13:02:36;;;;;;;1.35;0.57;;;;;;;17.67;51.05;98382.66;4961443;29;20024;-91
2022/04/21 13:11:59;;;;;;;1.85;0.60;;;;;;;17.69;51.07;98360.47;4961821;29;20105;-93
2022/04/21 13:24:25;;;;;;;0.50;0.40;;;;;;;17.68;51.23;98347.41;4941667;29;20098;-92
2022/04/21 13:26:59;;;;;;;0.70;0.40;;;;;;;17.69;51.60;98344.63;4923850;29;20092;-93
2022/04/21 13:30:10;;;;;;;0.90;0.60;;;;;;;17.70;51.28;98346.34;4937004;29;20083;-92
2022/04/21 13:36:04;;;;;;;1.05;0.60;;;;;;;17.73;51.36;98334.75;4960735;29;20124;-93
2022/04/21 13:41:58;;;;;;;0.65;0.50;;;;;;;17.74;50.95;98325.03;4960378;29;20038;-93
2022/04/21 13:44:26;;;;;;;0.80;0.40;;;;;;;17.74;51.28;98325.88;4945042;29;20031;-91
2022/04/21 13:46:56;;;;;;;1.23;0.70;;;;;;;17.75;51.11;98327.56;4944327;29;20032;-92
2022/04/21 13:49:32;;;;;;;1.05;0.50;;;;;;;17.75;51.22;98321.44;4898627;29;20048;-93
2022/04/21 13:52:20;;;;;;;0.80;0.43;;;;;;;17.76;51.22;98312.56;4945141;29;20040;-91
2022/04/21 13:55:21;;;;;;;1.35;0.40;;;;;;;17.76;51.17;98302.88;4945115;29;20055;-92
2022/04/21 13:57:50;;;;;;;1.23;0.63;;;;;;;17.77;51.28;98303.75;4958306;29;20043;-93
2022/04/21 14:17:42;;;;;;;0.95;0.40;;;;;;;17.78;51.09;98285.13;4980054;28;20038;-93
2022/04/21 14:20:37;;;;;;;1.10;0.50;;;;;;;17.78;50.73;98281.69;4983321;28;20058;-93
2022/04/21 14:49:52;;;;;;;1.05;0.70;;;;;;;17.78;51.26;98253.47;4960337;28;20044;-93
2022/04/21 14:56:29;;;;;;;1.05;0.50;;;;;;;17.78;51.33;98244.72;4940807;29;20039;-95
2022/04/21 15:03:00;;;;;;;1.10;0.57;;;;;;;17.80;51.41;98258.66;4940728;29;20050;-93
2022/04/21 15:06:08;;;;;;;0.90;0.50;;;;;;;17.78;51.19;98257.94;4934998;29;20046;-93
2022/04/21 15:26:18;;;;;;;0.90;0.60;;;;;;;17.82;51.26;98259.44;4879526;29;20129;-93
2022/04/21 15:29:16;;;;;;;1.02;0.55;;;;;;;17.82;50.95;98254.16;4905823;29;20041;-93
2022/04/21 15:31:52;;;;;;;1.25;0.77;;;;;;;17.81;50.69;98253.28;4939251;29;20060;-92
2022/04/21 15:51:18;;;;;;;1.00;0.55;;;;;;;17.84;50.86;98247.78;4958922;29;20043;-93
2022/04/21 16:00:19;;;;;;;1.60;0.80;;;;;;;17.86;50.75;98245.06;4953084;29;20043;-91
2022/04/21 16:02:46;;;;;;;1.02;0.75;;;;;;;17.86;50.99;98245.06;4957039;29;20026;-92
2022/04/21 16:05:16;;;;;;;0.77;0.60;;;;;;;17.86;50.72;98247.69;4958778;29;20140;-92
2022/04/21 16:07:45;;;;;;;1.17;0.80;;;;;;;17.84;50.93;98247.78;4925941;29;20074;-92
2022/04/21 16:10:24;;;;;;;2.10;0.93;;;;;;;17.84;50.75;98244.31;4927648;29;20023;-91
2022/04/21 16:12:51;;;;;;;1.98;0.63;;;;;;;17.84;50.87;98241.69;4974347;28;20394;-91
2022/04/21 16:15:17;;;;;;;1.30;0.80;;;;;;;17.83;50.96;98245.28;4960342;29;20094;-91
2022/04/21 16:17:44;;;;;;;1.10;0.80;;;;;;;17.84;51.11;98246.97;4982874;28;20069;-89
2022/04/21 16:20:10;;;;;;;2.05;0.90;;;;;;;17.84;50.75;98246.97;4975738;28;20030;-90
2022/04/21 16:22:39;;;;;;;2.58;0.85;;;;;;;17.83;50.98;98240.81;4974646;28;20027;-91
2022/04/21 16:25:06;;;;;;;1.27;0.80;;;;;;;17.85;51.17;98243.38;4969829;28;20035;-92
2022/04/21 16:41:09;;;;;;;1.38;0.80;;;;;;;17.86;50.99;98223.94;5002876;28;20034;-94
2022/04/21 16:46:56;;;;;;;3.13;1.00;;;;;;;17.89;50.73;98215.84;4982408;28;20042;-95
2022/04/21 16:49:25;;;;;;;1.73;0.93;;;;;;;17.90;50.45;98214.88;4981497;28;20027;-94
2022/04/21 17:12:25;;;;;;;3.63;1.50;;;;;;;17.95;50.81;98191.66;4962184;29;20062;-94
2022/04/21 17:18:17;;;;;;;3.95;1.52;;;;;;;17.97;50.88;98195.03;4981476;28;20111;-94
2022/04/21 17:20:49;;;;;;;4.47;1.40;;;;;;;17.96;51.21;98198.63;4965414;29;20016;-94
2022/04/21 17:23:16;;;;;;;4.60;1.67;;;;;;;17.98;51.29;98201.16;4965812;28;20015;-94
2022/04/21 17:25:49;;;;;;;5.50;1.40;;;;;;;17.94;51.11;98184.69;4956338;28;20109;-94
2022/04/21 17:28:16;;;;;;;5.63;1.70;;;;;;;17.94;51.65;98192.63;4982800;28;20035;-93
2022/04/21 17:30:49;;;;;;;4.40;1.63;;;;;;;17.96;50.89;98192.50;4984545;28;20053;-94
2022/04/21 17:33:21;;;;;;;5.43;2.13;;;;;;;17.97;50.46;98195.03;4981434;28;20038;-94
2022/04/21 17:42:52;;;;;;;4.53;1.65;;;;;;;18.00;50.76;98198.44;4959854;29;20046;-92
2022/04/21 17:45:38;;;;;;;4.38;1.70;;;;;;;17.97;50.86;98189.75;4928245;29;20030;-93
2022/04/21 17:48:16;;;;;;;5.40;1.60;;;;;;;17.97;51.40;98189.75;4959160;29;20079;-93
2022/04/21 17:50:43;;;;;;;5.20;2.03;;;;;;;17.97;51.40;98184.47;4958293;29;20047;-93
2022/04/21 17:53:08;;;;;;;4.88;2.13;;;;;;;17.97;51.14;98184.47;4942887;29;20020;-93
2022/04/21 17:55:46;;;;;;;4.57;1.85;;;;;;;17.97;50.93;98188.94;4944349;29;20083;-95
2022/04/21 17:58:14;;;;;;;7.88;1.98;;;;;;;17.98;50.85;98188.78;4960992;29;20039;-94
2022/04/21 18:00:44;;;;;;;4.68;1.70;;;;;;;17.96;51.58;98193.34;4927841;29;20039;-93
2022/04/21 18:03:10;;;;;;;3.88;1.60;;;;;;;17.98;51.75;98191.44;4959316;29;20059;-92
2022/04/21 18:05:38;;;;;;;5.53;2.00;;;;;;;17.98;51.43;98191.44;4958679;29;20043;-92
2022/04/21 18:08:13;;;;;;;3.22;1.67;;;;;;;17.98;51.60;98186.16;4943416;29;20075;-92
2022/04/21 18:10:54;;;;;;;3.78;1.80;;;;;;;17.98;51.20;98185.31;4943108;29;20031;-91
2022/04/21 18:13:52;;;;;;;4.85;1.90;;;;;;;18.00;51.36;98190.50;4958963;29;20509;-93
2022/04/21 18:16:19;;;;;;;6.38;2.30;;;;;;;18.00;51.68;98177.31;4941151;29;20011;-92
2022/04/21 18:18:45;;;;;;;5.13;1.90;;;;;;;17.97;51.49;98187.09;4927907;29;20027;-93
2022/04/21 18:21:15;;;;;;;5.07;2.03;;;;;;;17.98;51.72;98191.44;4958662;29;20070;-93
2022/04/21 18:23:42;;;;;;;5.13;2.13;;;;;;;17.97;52.12;98184.47;4943572;29;20024;-92
2022/04/21 18:26:30;;;;;;;4.32;1.85;;;;;;;18.00;51.41;98185.22;4927904;29;20091;-94
2022/04/21 18:32:14;;;;;;;5.13;1.83;;;;;;;18.01;51.54;98184.28;4970917;28;20038;-93
2022/04/21 18:34:46;;;;;;;4.05;1.95;;;;;;;18.01;51.50;98184.28;4966362;28;20035;-94
2022/04/21 18:37:13;;;;;;;4.40;1.73;;;;;;;18.01;51.39;98181.63;4982507;28;20103;-93
2022/04/21 18:39:38;;;;;;;4.15;1.88;;;;;;;18.01;51.48;98173.72;4982443;28;20007;-93
2022/04/21 18:42:06;;;;;;;5.60;2.10;;;;;;;18.00;51.86;98179.94;4978673;28;20033;-92
2022/04/21 18:44:32;;;;;;;5.68;1.90;;;;;;;18.01;51.58;98190.38;4980298;28;20058;-92
2022/04/21 18:46:58;;;;;;;3.33;1.67;;;;;;;18.00;51.75;98182.59;4993063;28;20030;-92
2022/04/21 18:49:25;;;;;;;4.20;1.83;;;;;;;18.01;51.75;98179.81;4964739;28;20057;-92
2022/04/21 18:51:56;;;;;;;4.75;2.30;;;;;;;18.01;51.66;98179.00;4977737;28;20027;-91
2022/04/21 18:54:30;;;;;;;3.95;1.90;;;;;;;18.02;51.39;98181.50;4959630;28;20043;-91
2022/04/21 18:57:03;;;;;;;4.10;2.10;;;;;;;18.02;51.92;98185.97;4997672;28;20027;-94
2022/04/21 18:59:40;;;;;;;3.67;1.63;;;;;;;18.03;51.97;98185.84;4994741;28;20151;-89
2022/04/21 19:02:06;;;;;;;5.25;2.25;;;;;;;18.03;52.09;98183.22;4968597;28;20572;-90
2022/04/21 19:04:31;;;;;;;3.53;1.88;;;;;;;18.04;52.30;98184.03;4970560;28;20022;-92
2022/04/21 19:07:15;;;;;;;5.13;2.08;;;;;;;18.06;51.50;98184.84;4991685;28;20010;-91
2022/04/21 19:12:25;;;;;;;4.45;1.95;;;;;;;18.03;51.97;98177.09;4998339;28;20525;-95
2022/04/21 19:15:19;;;;;;;4.50;2.28;;;;;;;18.02;51.83;98185.97;4982257;28;20027;-93
2022/04/21 19:21:08;;;;;;;3.53;2.25;;;;;;;18.05;51.62;98183.09;4999034;28;20070;-93
2022/04/21 19:23:42;;;;;;;4.82;2.30;;;;;;;18.05;51.57;98191.88;4965774;28;20019;-93
2022/04/21 19:26:15;;;;;;;4.88;2.17;;;;;;;18.06;52.25;98187.47;4982253;28;20034;-94
2022/04/21 19:29:13;;;;;;;5.80;2.45;;;;;;;18.06;51.48;98187.47;4966544;28;20054;-95
2022/04/21 19:41:49;;;;;;;4.60;2.15;;;;;;;18.05;52.52;98196.28;4998500;28;20065;-93
2022/04/21 19:44:40;;;;;;;4.53;1.98;;;;;;;18.03;52.26;98192.91;4983494;28;20019;-92
2022/04/21 19:47:35;;;;;;;3.53;1.70;;;;;;;18.03;52.41;98192.91;4980903;28;20057;-94
2022/04/21 19:56:55;;;;;;;5.40;2.40;;;;;;;18.07;51.79;98199.72;4998785;28;20053;-92
2022/04/21 20:02:02;;;;;;;4.25;2.30;;;;;;;18.08;52.39;98199.63;5202807;23;20059;-92
2022/04/21 20:04:33;;;;;;;4.47;2.17;;;;;;;18.07;52.18;98194.44;4974535;28;20015;-93
2022/04/21 20:10:04;;;;;;;4.20;2.55;;;;;;;18.07;52.67;98199.72;4988676;28;20053;-93
2022/04/21 20:12:48;;;;;;;4.78;2.20;;;;;;;18.06;52.29;98198.88;4986001;28;20045;-93
2022/04/21 20:15:17;;;;;;;4.55;2.20;;;;;;;18.07;51.91;98199.72;5002448;28;20043;-93
2022/04/21 20:18:09;;;;;;;3.60;2.17;;;;;;;18.10;51.81;98196.84;4983956;28;20023;-93
2022/04/21 20:29:52;;;;;;;4.32;2.33;;;;;;;18.11;52.23;98195.91;4999230;28;20059;-91
2022/04/21 20:32:25;;;;;;;3.78;2.28;;;;;;;18.11;52.05;98185.34;4980655;28;20042;-94
2022/04/21 20:35:01;;;;;;;4.60;2.33;;;;;;;18.09;52.36;98187.25;4984369;28;20038;-94
2022/04/21 20:37:45;;;;;;;5.13;2.33;;;;;;;18.11;52.53;98185.34;4979650;28;20034;-92
2022/04/21 20:40:11;;;;;;;4.47;2.55;;;;;;;18.10;52.00;98189.78;4982382;28;20281;-92
2022/04/21 20:42:38;;;;;;;7.35;2.25;;;;;;;18.11;52.09;98188.84;4984555;28;20026;-93
2022/04/21 20:45:23;;;;;;;4.28;2.13;;;;;;;18.12;52.10;98192.34;4970114;28;20015;-94
2022/04/21 20:47:54;;;;;;;5.10;2.38;;;;;;;18.13;52.48;98194.00;4999809;28;20096;-93
2022/04/21 20:53:10;;;;;;;5.15;2.30;;;;;;;18.13;52.03;98194.00;5722524;23;20058;-93
2022/04/21 20:55:36;;;;;;;4.38;2.10;;;;;;;18.12;52.77;98197.63;5147491;23;20080;-95
2022/04/21 21:00:40;;;;;;;5.47;2.63;;;;;;;18.11;52.75;98196.75;5088562;23;20070;-95
2022/04/21 21:03:17;;;;;;;4.40;2.00;;;;;;;18.13;52.49;98194.00;4996991;28;20047;-93
2022/04/21 21:06:05;;;;;;;3.53;2.20;;;;;;;18.11;52.41;98187.97;4968887;28;20080;-94
2022/04/21 21:22:57;;;;;;;4.97;2.60;;;;;;;18.13;52.56;98167.63;5000246;28;20038;-93
2022/04/21 21:28:06;;;;;;;3.60;2.17;;;;;;;18.14;52.91;98165.81;5178330;23;20065;-95
2022/04/21 21:30:32;;;;;;;3.90;2.28;;;;;;;18.14;52.68;98161.38;4989144;28;20029;-95